TimePDT,TemperatureF,Dew PointF,Humidity,Sea Level PressureIn,VisibilityMPH,Wind Direction,Wind SpeedMPH,Gust SpeedMPH,PrecipitationIn,Events,Conditions,WindDirDegrees,DateUTC
12:52 AM,21.9,10.0,60,30.01,10.0,Calm,Calm,-,N/A,,Clear,0,2014-03-18 07:52:00
1:52 AM,19.9,9.0,62,30.01,10.0,North,3.5,-,N/A,,Clear,360,2014-03-18 08:52:00
2:52 AM,18.0,8.1,65,30.02,10.0,Calm,Calm,-,N/A,,Clear,0,2014-03-18 09:52:00
3:52 AM,18.0,8.1,65,30.02,10.0,Calm,Calm,-,N/A,,Clear,0,2014-03-18 10:52:00
4:52 AM,15.1,8.1,74,30.04,10.0,Calm,Calm,-,N/A,,Clear,0,2014-03-18 11:52:00
5:52 AM,12.9,7.0,77,30.08,10.0,Calm,Calm,-,N/A,,Clear,0,2014-03-18 12:52:00
6:52 AM,15.1,7.0,70,30.08,10.0,Calm,Calm,-,N/A,,Clear,0,2014-03-18 13:52:00
7:52 AM,15.1,8.1,74,30.12,10.0,Calm,Calm,-,N/A,,Clear,0,2014-03-18 14:52:00
8:52 AM,23.0,10.9,60,30.09,10.0,Calm,Calm,-,N/A,,Clear,0,2014-03-18 15:52:00
9:52 AM,30.9,10.9,43,30.07,10.0,Calm,Calm,-,N/A,,Clear,0,2014-03-18 16:52:00
10:52 AM,36.0,10.0,34,30.07,10.0,Calm,Calm,-,N/A,,Clear,0,2014-03-18 17:52:00
11:52 AM,39.9,9.0,28,30.05,10.0,SE,6.9,-,N/A,,Clear,140,2014-03-18 18:52:00
12:52 PM,45.0,8.1,22,30.02,10.0,Variable,3.5,-,N/A,,Clear,0,2014-03-18 19:52:00
1:52 PM,46.9,8.1,21,30.00,10.0,Variable,5.8,-,N/A,,Clear,0,2014-03-18 20:52:00
2:52 PM,48.9,7.0,18,29.98,10.0,ESE,6.9,-,N/A,,Clear,120,2014-03-18 21:52:00
3:52 PM,48.9,8.1,19,29.98,10.0,NE,8.1,-,N/A,,Clear,50,2014-03-18 22:52:00
4:52 PM,46.9,8.1,21,30.00,10.0,East,12.7,-,N/A,,Clear,90,2014-03-18 23:52:00
5:52 PM,46.0,8.1,21,30.02,10.0,ENE,8.1,-,N/A,,Clear,60,2014-03-19 00:52:00
6:52 PM,39.0,8.1,28,30.07,10.0,West,4.6,-,N/A,,Clear,260,2014-03-19 01:52:00
7:52 PM,35.1,6.1,30,30.12,10.0,Calm,Calm,-,N/A,,Clear,0,2014-03-19 02:52:00
8:52 PM,30.9,6.1,35,30.13,10.0,NNW,3.5,-,N/A,,Clear,340,2014-03-19 03:52:00
9:52 PM,27.0,8.1,45,30.13,10.0,Calm,Calm,-,N/A,,Clear,0,2014-03-19 04:52:00
10:52 PM,24.1,8.1,51,30.13,10.0,Calm,Calm,-,N/A,,Clear,0,2014-03-19 05:52:00
11:52 PM,23.0,8.1,53,30.12,10.0,Calm,Calm,-,N/A,,Clear,0,2014-03-19 06:52:00